Time;durP1;ratioP1;P1;durP2;ratioP2;P2;SDS_P1;SDS_P2;PMS_P1;PMS_P2;Temp;Humidity;BMP_temperature;BMP_pressure;BME280_temperature;BME280_humidity;BME280_pressure;Samples;Min_cycle;Max_cycle;Signal;HPM_P1;HPM_P2
2024/01/01 00:02:24;;;;;;;4.25;2.35;;;;;;;10.20;59.41;96189.88;4886677;28;20265;-78
2024/01/01 00:04:49;;;;;;;6.28;2.38;;;;;;;10.22;59.61;96192.22;4873331;28;20162;-79
2024/01/01 00:07:14;;;;;;;6.43;2.33;;;;;;;10.07;60.03;96198.22;4916060;28;20163;-81
2024/01/01 00:09:40;;;;;;;6.75;3.05;;;;;;;10.04;60.06;96199.56;4898249;28;20075;-78
2024/01/01 00:12:08;;;;;;;4.18;1.85;;;;;;;9.78;60.90;96192.84;4886938;28;20190;-79
2024/01/01 00:14:33;;;;;;;6.97;2.58;;;;;;;10.15;59.66;96197.69;4895123;28;20228;-79
2024/01/01 00:16:59;;;;;;;6.78;2.38;;;;;;;10.13;59.40;96197.19;4906689;28;20194;-82
2024/01/01 00:19:24;;;;;;;4.93;1.77;;;;;;;9.75;60.01;96199.34;4884197;28;20741;-79
2024/01/01 00:21:50;;;;;;;4.55;1.55;;;;;;;9.97;59.87;96203.47;4927136;28;20620;-80
2024/01/01 00:24:16;;;;;;;7.20;2.20;;;;;;;9.82;60.45;96199.84;4918853;28;20240;-79
2024/01/01 00:26:42;;;;;;;6.82;2.10;;;;;;;10.01;59.08;96191.50;4903907;28;20159;-79
2024/01/01 00:29:09;;;;;;;4.20;1.83;;;;;;;9.90;60.45;96199.31;4903364;28;20186;-78
2024/01/01 00:31:36;;;;;;;5.88;2.00;;;;;;;9.95;60.47;96208.91;4888916;28;20289;-81
2024/01/01 00:34:01;;;;;;;5.85;1.70;;;;;;;10.23;59.73;96204.97;4890334;28;20494;-79
2024/01/01 00:36:27;;;;;;;4.90;1.60;;;;;;;10.21;59.41;96204.44;4897122;28;20195;-79
2024/01/01 00:38:53;;;;;;;4.07;1.50;;;;;;;10.07;59.77;96195.63;4877501;28;20284;-81
2024/01/01 00:41:18;;;;;;;3.40;0.98;;;;;;;10.15;59.79;96205.50;4930050;28;20237;-81
2024/01/01 00:43:43;;;;;;;4.10;1.58;;;;;;;10.24;59.37;96203.91;4892622;28;20764;-78
2024/01/01 00:46:10;;;;;;;3.17;1.33;;;;;;;10.04;59.80;96190.94;4890208;28;20251;-78
2024/01/01 00:48:35;;;;;;;4.25;1.30;;;;;;;10.19;59.75;96201.31;4930822;28;20557;-79
2024/01/01 00:51:01;;;;;;;4.43;1.15;;;;;;;10.11;59.88;96191.47;4934575;28;20286;-79
2024/01/01 00:53:26;;;;;;;4.05;1.23;;;;;;;10.23;59.68;96189.34;4905253;28;20248;-80
2024/01/01 00:55:51;;;;;;;4.57;1.33;;;;;;;10.25;59.49;96208.06;4894893;28;20038;-79
2024/01/01 00:58:17;;;;;;;4.57;1.23;;;;;;;9.70;60.63;96188.97;4879469;28;20281;-79
2024/01/01 01:00:42;;;;;;;2.40;0.93;;;;;;;9.85;60.63;96198.53;4894012;28;20309;-78
2024/01/01 01:03:07;;;;;;;2.30;1.15;;;;;;;9.81;60.61;96207.91;4910034;28;20030;-79
2024/01/01 01:05:33;;;;;;;6.32;1.10;;;;;;;10.01;61.18;96200.06;4913772;28;20186;-79
2024/01/01 01:07:58;;;;;;;3.67;1.50;;;;;;;9.92;60.16;96197.25;4940069;28;20217;-78
2024/01/01 01:10:24;;;;;;;7.60;1.00;;;;;;;9.87;60.83;96212.06;4909592;28;20037;-78
2024/01/01 01:12:53;;;;;;;4.57;1.15;;;;;;;10.04;59.98;96206.56;4925360;28;20340;-77
2024/01/01 01:15:19;;;;;;;4.68;0.80;;;;;;;10.13;60.47;96210.19;4899313;28;20271;-78
2024/01/01 01:17:44;;;;;;;2.17;0.63;;;;;;;10.21;59.54;96207.06;4890962;28;20284;-77
2024/01/01 01:20:10;;;;;;;3.15;0.90;;;;;;;9.98;60.48;96218.03;4920321;28;20341;-78
2024/01/01 01:22:35;;;;;;;2.75;0.90;;;;;;;10.07;60.63;96226.84;4921653;28;20502;-78
2024/01/01 01:25:01;;;;;;;4.45;0.85;;;;;;;9.98;60.05;96233.63;4897758;28;20104;-77
2024/01/01 01:27:26;;;;;;;4.80;0.95;;;;;;;10.02;60.62;96224.25;4886638;28;20199;-78
2024/01/01 01:29:52;;;;;;;4.10;1.17;;;;;;;10.17;60.71;96250.22;4935219;28;20634;-78
2024/01/01 01:32:17;;;;;;;3.05;0.68;;;;;;;9.95;61.97;96240.13;4909156;28;20727;-77
2024/01/01 01:34:42;;;;;;;3.90;0.82;;;;;;;9.87;62.39;96245.84;4912447;28;20353;-78
2024/01/01 01:37:08;;;;;;;4.82;0.80;;;;;;;10.04;61.79;96248.97;4912023;28;20167;-79
2024/01/01 01:39:33;;;;;;;8.65;1.80;;;;;;;10.03;61.87;96244.03;4898919;28;20281;-78
2024/01/01 01:41:58;;;;;;;3.17;1.10;;;;;;;9.92;61.90;96257.03;4902727;28;20277;-78
2024/01/01 01:44:24;;;;;;;3.88;0.80;;;;;;;10.06;61.98;96248.72;4915394;28;20359;-77
2024/01/01 01:46:50;;;;;;;4.28;0.90;;;;;;;9.91;63.05;96257.31;4903920;28;20285;-78
2024/01/01 01:49:15;;;;;;;6.28;0.80;;;;;;;9.94;61.80;96254.94;4924646;28;20743;-78
2024/01/01 01:51:41;;;;;;;3.90;0.88;;;;;;;9.93;61.89;96242.97;4933046;28;20613;-78
2024/01/01 01:54:06;;;;;;;8.85;1.20;;;;;;;9.86;62.75;96252.09;4938646;28;20259;-77
2024/01/01 01:56:32;;;;;;;3.85;0.93;;;;;;;9.67;63.30;96257.84;4934097;28;20271;-77
2024/01/01 01:58:59;;;;;;;3.50;0.85;;;;;;;9.93;61.42;96253.38;4897037;28;20676;-78
2024/01/01 02:01:25;;;;;;;3.72;1.88;;;;;;;9.81;62.57;96247.69;4927216;28;20065;-79
2024/01/01 02:03:50;;;;;;;2.83;0.70;;;;;;;9.84;61.73;96228.19;4928041;28;20221;-78
2024/01/01 02:06:16;;;;;;;3.92;0.70;;;;;;;9.88;61.87;96235.19;4916211;28;20458;-77
2024/01/01 02:08:41;;;;;;;2.17;0.90;;;;;;;9.74;61.96;96237.56;4915833;28;20260;-78
2024/01/01 02:11:06;;;;;;;2.50;0.60;;;;;;;9.59;63.09;96257.56;4886266;28;20037;-79
2024/01/01 02:13:32;;;;;;;4.72;0.88;;;;;;;9.57;63.16;96244.84;4913537;28;20198;-78
2024/01/01 02:15:57;;;;;;;4.00;0.85;;;;;;;9.49;64.39;96233.16;4923449;28;20197;-78
2024/01/01 02:18:25;;;;;;;6.70;1.02;;;;;;;9.60;64.65;96238.34;4899927;28;20280;-78
2024/01/01 02:20:51;;;;;;;6.28;0.73;;;;;;;9.64;64.19;96240.16;4902218;28;20206;-78
2024/01/01 02:23:16;;;;;;;6.00;1.00;;;;;;;9.46;64.93;96228.47;4916524;28;20271;-78
2024/01/01 02:25:42;;;;;;;4.97;1.55;;;;;;;9.26;65.04;96229.25;4917979;28;20252;-78
2024/01/01 02:28:08;;;;;;;3.38;0.57;;;;;;;9.50;65.22;96232.09;4893395;28;20574;-78
2024/01/01 02:30:33;;;;;;;5.05;0.90;;;;;;;9.38;65.19;96227.16;4925943;28;20288;-79
2024/01/01 02:32:58;;;;;;;5.32;1.23;;;;;;;9.38;65.75;96229.00;4918061;28;20188;-78
2024/01/01 02:35:24;;;;;;;5.40;1.10;;;;;;;9.42;64.50;96227.44;4902035;28;20110;-78
2024/01/01 02:37:49;;;;;;;3.42;1.00;;;;;;;9.63;64.54;96238.63;4898008;28;20046;-78
2024/01/01 02:40:14;;;;;;;7.60;1.17;;;;;;;9.16;66.21;96221.44;4901218;28;20240;-77
2024/01/01 02:42:40;;;;;;;4.90;1.00;;;;;;;9.27;65.51;96228.22;4924565;28;20314;-78
2024/01/01 02:45:06;;;;;;;6.68;1.05;;;;;;;9.29;65.50;96233.16;4899895;28;20652;-79
2024/01/01 02:47:32;;;;;;;4.07;0.82;;;;;;;9.50;65.41;96239.13;4908743;28;20230;-79
2024/01/01 02:49:57;;;;;;;3.95;1.05;;;;;;;9.66;64.40;96229.50;4933904;28;20187;-78
2024/01/01 02:52:22;;;;;;;4.78;0.88;;;;;;;9.61;64.63;96237.31;4899879;28;20150;-79
2024/01/01 02:54:48;;;;;;;6.95;1.77;;;;;;;9.11;66.20;96242.22;4895299;28;20325;-78
2024/01/01 02:57:14;;;;;;;5.90;0.88;;;;;;;9.32;66.10;96240.41;4900872;28;20155;-79
2024/01/01 02:59:40;;;;;;;7.55;1.63;;;;;;;9.45;65.48;96237.31;4893632;28;20753;-79
2024/01/01 03:02:07;;;;;;;8.15;1.70;;;;;;;9.27;66.00;96245.59;4921085;28;20033;-76
2024/01/01 03:04:32;;;;;;;4.53;1.17;;;;;;;9.05;66.17;96249.22;4913029;28;20617;-77
2024/01/01 03:06:58;;;;;;;4.07;1.00;;;;;;;9.17;66.68;96254.19;4901952;28;20183;-80
2024/01/01 03:09:23;;;;;;;5.05;0.80;;;;;;;9.23;66.15;96247.16;4900006;28;20133;-79
2024/01/01 03:11:49;;;;;;;6.18;1.08;;;;;;;9.15;65.75;96241.44;4909660;28;20257;-79
2024/01/01 03:14:14;;;;;;;6.78;1.00;;;;;;;9.25;66.18;96245.09;4915713;28;20171;-80
2024/01/01 03:16:40;;;;;;;3.83;0.80;;;;;;;9.23;65.01;96244.56;4921130;28;20185;-80
2024/01/01 03:19:05;;;;;;;6.03;1.20;;;;;;;9.22;65.00;96233.41;4899765;28;20396;-80
2024/01/01 03:21:31;;;;;;;7.05;1.27;;;;;;;9.13;65.27;96245.31;4894083;28;20343;-80
2024/01/01 03:23:56;;;;;;;8.65;1.65;;;;;;;8.96;66.19;96250.75;4906262;28;20296;-80
2024/01/01 03:26:22;;;;;;;6.10;1.10;;;;;;;9.15;65.70;96231.06;4871628;28;20199;-79
2024/01/01 03:28:48;;;;;;;10.70;1.92;;;;;;;9.25;65.05;96245.84;4889332;28;20203;-80
2024/01/01 03:31:13;;;;;;;7.45;1.42;;;;;;;9.02;66.14;96234.16;4870335;28;20226;-79
2024/01/01 03:33:38;;;;;;;10.32;1.60;;;;;;;9.00;65.73;96231.03;4920858;28;20206;-79
2024/01/01 03:36:04;;;;;;;6.95;1.08;;;;;;;9.28;65.08;96241.97;4883839;28;20530;-79
2024/01/01 03:38:29;;;;;;;6.45;1.30;;;;;;;9.32;65.02;96243.81;4918651;28;20385;-79
2024/01/01 03:40:55;;;;;;;4.25;0.70;;;;;;;9.01;65.81;96261.13;4918936;28;20160;-79
2024/01/01 03:43:21;;;;;;;2.05;0.60;;;;;;;9.11;64.86;96253.38;4921878;28;20316;-80
2024/01/01 03:45:47;;;;;;;1.63;0.88;;;;;;;9.18;64.78;96243.53;4903771;28;20256;-80
2024/01/01 03:48:12;;;;;;;4.40;0.52;;;;;;;9.20;64.86;96227.66;4903195;28;20712;-79
2024/01/01 03:50:38;;;;;;;3.42;0.75;;;;;;;9.27;64.80;96243.00;4888797;28;20636;-81
2024/01/01 03:53:03;;;;;;;2.65;0.70;;;;;;;9.04;64.92;96237.25;4907855;28;20280;-79
2024/01/01 03:55:29;;;;;;;3.88;0.55;;;;;;;9.23;65.50;96249.75;4902176;28;20186;-79
2024/01/01 03:57:54;;;;;;;8.82;1.55;;;;;;;9.07;65.49;96234.16;4909256;28;20218;-79
2024/01/01 04:00:20;;;;;;;8.45;1.77;;;;;;;9.06;65.90;96230.00;4921361;28;20265;-80
2024/01/01 04:02:46;;;;;;;4.70;0.85;;;;;;;8.93;66.77;96248.69;4905214;28;20277;-79
2024/01/01 04:05:12;;;;;;;4.25;1.35;;;;;;;8.85;67.81;96244.75;4888231;28;20725;-80
2024/01/01 04:07:38;;;;;;;6.65;1.95;;;;;;;9.05;67.23;96235.44;4889683;28;20277;-80
2024/01/01 04:10:05;;;;;;;10.18;1.33;;;;;;;8.83;67.45;96239.03;4904703;28;20233;-80
2024/01/01 04:12:30;;;;;;;4.95;0.90;;;;;;;9.01;67.33;96232.56;4889874;28;20216;-80
2024/01/01 04:14:56;;;;;;;7.88;1.67;;;;;;;8.96;67.11;96245.56;4889616;28;20189;-82
2024/01/01 04:17:21;;;;;;;6.80;0.98;;;;;;;8.64;68.79;96243.91;4921038;28;20284;-81
2024/01/01 04:19:47;;;;;;;5.30;1.10;;;;;;;8.65;68.65;96239.50;4906424;28;20249;-81
2024/01/01 04:22:16;;;;;;;7.95;1.45;;;;;;;8.58;69.36;96260.50;4889224;28;20213;-81
2024/01/01 04:24:42;;;;;;;4.85;1.27;;;;;;;8.86;67.52;96250.72;4902589;28;20575;-80
2024/01/01 04:27:08;;;;;;;4.20;1.02;;;;;;;9.03;67.23;96266.88;4888820;28;20310;-82
2024/01/01 04:29:33;;;;;;;5.88;1.23;;;;;;;8.85;67.93;96262.16;4905376;28;20358;-81
2024/01/01 04:31:59;;;;;;;5.07;1.08;;;;;;;9.05;67.84;96270.00;4904991;28;20304;-81
2024/01/01 04:34:25;;;;;;;6.10;1.10;;;;;;;9.05;67.88;96269.19;4887971;28;20237;-80
2024/01/01 04:36:50;;;;;;;3.53;0.93;;;;;;;8.78;68.22;96260.56;4889210;28;20293;-80
2024/01/01 04:39:15;;;;;;;7.15;1.10;;;;;;;8.88;67.84;96269.44;4902819;28;20525;-81
2024/01/01 04:41:41;;;;;;;5.93;1.17;;;;;;;8.74;67.69;96267.31;4904774;28;20167;-80
2024/01/01 04:44:06;;;;;;;6.43;1.30;;;;;;;8.78;67.07;96263.16;4908099;28;20277;-80
2024/01/01 04:46:32;;;;;;;7.45;1.10;;;;;;;9.03;66.73;96260.88;4871150;28;20212;-80
2024/01/01 04:48:57;;;;;;;8.18;1.48;;;;;;;9.11;66.80;96268.94;4891187;28;20248;-80
2024/01/01 04:51:22;;;;;;;5.70;1.55;;;;;;;9.18;66.13;96269.50;4887513;28;20239;-81
2024/01/01 04:53:48;;;;;;;9.55;1.25;;;;;;;9.14;66.29;96267.66;4918998;28;20400;-80
2024/01/01 04:56:13;;;;;;;7.90;1.10;;;;;;;8.81;67.77;96264.47;4875338;28;20370;-80
2024/01/01 04:58:39;;;;;;;7.32;1.60;;;;;;;8.62;68.13;96266.75;4909323;28;20720;-82
2024/01/01 05:01:05;;;;;;;8.63;1.85;;;;;;;8.88;66.54;96266.84;4909066;28;20198;-80
2024/01/01 05:03:31;;;;;;;3.95;1.65;;;;;;;9.00;66.78;96281.13;4890243;28;20221;-81
2024/01/01 05:05:57;;;;;;;6.50;1.60;;;;;;;9.05;67.24;96275.19;4887277;28;20677;-81
2024/01/01 05:08:23;;;;;;;6.57;1.08;;;;;;;9.02;66.81;96270.50;4903832;28;20343;-80
2024/01/01 05:10:48;;;;;;;6.25;1.35;;;;;;;8.62;68.13;96264.94;4877816;28;20261;-81
2024/01/01 05:13:15;;;;;;;7.63;2.03;;;;;;;8.97;66.72;96280.88;4889292;28;20293;-81
2024/01/01 05:15:41;;;;;;;7.55;1.17;;;;;;;8.98;66.69;96274.66;4889959;28;20171;-81
2024/01/01 05:18:06;;;;;;;7.20;1.42;;;;;;;9.16;66.00;96281.94;4875880;28;20301;-80
2024/01/01 05:20:32;;;;;;;8.40;1.33;;;;;;;9.08;65.86;96277.28;4908117;28;20347;-81
2024/01/01 05:22:58;;;;;;;5.57;1.05;;;;;;;9.05;66.64;96276.97;4880923;28;20269;-80
2024/01/01 05:25:23;;;;;;;5.13;1.80;;;;;;;8.98;66.11;96287.63;4889578;28;20367;-79
2024/01/01 05:27:52;;;;;;;11.07;1.42;;;;;;;8.83;67.33;96282.41;4889734;28;20191;-81
2024/01/01 05:30:37;;;;;;;9.93;1.60;;;;;;;9.04;66.52;96284.00;4893702;28;20205;-81
2024/01/01 05:33:02;;;;;;;9.27;2.83;;;;;;;9.00;67.13;96275.19;4877763;28;20225;-81
2024/01/01 05:35:28;;;;;;;6.18;1.30;;;;;;;8.66;67.62;96283.38;4873258;28;20704;-80
2024/01/01 05:37:54;;;;;;;8.02;1.10;;;;;;;8.52;68.32;96275.25;4891398;28;20241;-81
2024/01/01 05:40:21;;;;;;;4.82;1.13;;;;;;;8.70;67.88;96288.81;4907528;28;20267;-80
2024/01/01 05:42:46;;;;;;;7.40;1.65;;;;;;;8.50;68.54;96274.75;4888720;28;20252;-81
2024/01/01 05:45:12;;;;;;;9.77;1.95;;;;;;;8.87;67.73;96296.41;4906564;28;20292;-80
2024/01/01 05:47:37;;;;;;;5.60;0.68;;;;;;;8.65;68.26;96305.16;4891621;28;20371;-81
2024/01/01 05:50:03;;;;;;;8.98;1.38;;;;;;;8.85;66.60;96301.09;4906650;28;20186;-81
2024/01/01 05:52:29;;;;;;;8.23;1.33;;;;;;;8.44;67.85;96299.84;4941097;28;20285;-79
2024/01/01 05:54:54;;;;;;;7.32;1.38;;;;;;;8.57;67.53;96300.47;4923765;28;20276;-80
2024/01/01 05:57:19;;;;;;;4.35;1.02;;;;;;;8.89;66.30;96302.13;4906472;28;20255;-79
2024/01/01 05:59:45;;;;;;;7.90;1.52;;;;;;;8.85;66.31;96308.88;4922312;28;20348;-79
2024/01/01 06:02:10;;;;;;;6.38;1.15;;;;;;;8.78;66.52;96301.31;4902916;28;20201;-81
2024/01/01 06:04:36;;;;;;;11.32;1.85;;;;;;;8.56;67.83;96293.69;4905144;28;20688;-81
2024/01/01 06:07:01;;;;;;;6.78;1.42;;;;;;;8.54;66.98;96300.97;4904713;28;20192;-80
2024/01/01 06:09:27;;;;;;;5.95;1.23;;;;;;;8.71;67.16;96311.94;4921423;28;20198;-80
2024/01/01 06:11:52;;;;;;;6.95;1.30;;;;;;;8.34;67.19;96319.75;4873798;28;20289;-79
2024/01/01 06:14:17;;;;;;;4.70;1.23;;;;;;;8.64;67.35;96308.78;4889743;28;20715;-80
2024/01/01 06:16:44;;;;;;;4.90;1.20;;;;;;;8.74;66.22;96316.63;4890044;28;20150;-80
2024/01/01 06:19:10;;;;;;;9.05;1.30;;;;;;;8.74;66.68;96321.00;4905748;28;20290;-80
2024/01/01 06:21:35;;;;;;;10.63;1.73;;;;;;;8.68;66.48;96314.25;4889640;28;20253;-79
2024/01/01 06:24:01;;;;;;;5.68;1.52;;;;;;;8.88;65.81;96305.78;4873262;28;20238;-80
2024/01/01 06:26:26;;;;;;;5.53;1.10;;;;;;;8.91;66.63;96313.03;4918530;28;20163;-79
2024/01/01 06:28:51;;;;;;;7.72;1.23;;;;;;;8.74;66.11;96314.03;4922797;28;20628;-79
2024/01/01 06:31:17;;;;;;;5.70;1.15;;;;;;;8.71;66.32;96317.13;4889583;28;20212;-80
2024/01/01 06:33:42;;;;;;;6.53;1.13;;;;;;;8.65;67.14;96345.88;4874205;28;20225;-79
2024/01/01 06:36:09;;;;;;;5.30;1.38;;;;;;;8.67;66.57;96326.47;4887530;28;20210;-79
2024/01/01 06:38:36;;;;;;;10.20;1.08;;;;;;;8.75;66.50;96328.53;4905338;28;20744;-79
2024/01/01 06:41:02;;;;;;;15.57;2.47;;;;;;;8.93;65.62;96344.75;4889668;28;20249;-80
2024/01/01 06:43:27;;;;;;;9.27;1.55;;;;;;;8.92;65.59;96345.75;4904968;28;20217;-78
2024/01/01 06:45:52;;;;;;;10.25;1.38;;;;;;;8.95;65.03;96342.66;4902743;28;20243;-79
2024/01/01 06:48:18;;;;;;;7.70;1.77;;;;;;;9.09;64.73;96345.56;4888436;28;20279;-79
2024/01/01 06:50:43;;;;;;;7.75;1.27;;;;;;;8.95;65.14;96337.47;4887578;28;20209;-80
2024/01/01 06:53:09;;;;;;;8.43;1.27;;;;;;;8.72;65.00;96355.03;4906813;28;20292;-79
2024/01/01 06:55:34;;;;;;;5.45;1.83;;;;;;;8.91;65.80;96357.97;4897659;28;20186;-79
2024/01/01 06:58:00;;;;;;;5.93;1.38;;;;;;;8.88;65.48;96358.47;4906341;28;20961;-80
2024/01/01 07:00:25;;;;;;;7.63;1.85;;;;;;;9.02;64.34;96368.41;4871061;28;20284;-78
2024/01/01 07:02:51;;;;;;;4.93;0.93;;;;;;;8.85;64.73;96353.00;4889410;28;20341;-80
2024/01/01 07:05:16;;;;;;;6.95;1.65;;;;;;;9.16;64.15;96367.66;4889707;28;20197;-79
2024/01/01 07:07:42;;;;;;;6.65;2.20;;;;;;;8.91;64.47;96368.34;4891483;28;20338;-80
2024/01/01 07:10:07;;;;;;;6.20;1.15;;;;;;;8.81;65.70;96365.72;4907741;28;20581;-81
2024/01/01 07:12:33;;;;;;;8.32;1.55;;;;;;;9.01;64.52;96372.78;4907714;28;20148;-80
2024/01/01 07:14:58;;;;;;;7.25;1.55;;;;;;;9.11;65.24;96372.06;4891439;28;20194;-79
2024/01/01 07:17:24;;;;;;;12.27;1.50;;;;;;;9.05;65.39;96373.84;4874619;28;20252;-80
2024/01/01 07:19:49;;;;;;;9.80;2.17;;;;;;;8.86;65.58;96380.50;4891812;28;20197;-81
2024/01/01 07:22:15;;;;;;;6.70;0.90;;;;;;;8.96;64.72;96386.53;4908246;28;20660;-80
2024/01/01 07:24:41;;;;;;;6.10;1.70;;;;;;;9.03;65.08;96380.31;4890424;28;20561;-80
2024/01/01 07:27:06;;;;;;;10.35;1.60;;;;;;;8.76;64.66;96379.44;4905834;28;20189;-80
2024/01/01 07:29:32;;;;;;;8.65;0.98;;;;;;;8.62;66.23;96380.91;4891705;28;20213;-81
2024/01/01 07:31:57;;;;;;;10.35;1.88;;;;;;;8.95;64.05;96389.41;4892272;28;20292;-81
2024/01/01 07:34:24;;;;;;;7.07;1.15;;;;;;;8.96;65.07;96393.53;4890592;28;20631;-80
2024/01/01 07:36:50;;;;;;;7.40;1.30;;;;;;;8.84;64.66;96395.56;4906646;28;20232;-81
2024/01/01 07:39:23;;;;;;;4.50;0.77;;;;;;;8.69;65.19;96389.25;4891822;28;20179;-80
2024/01/01 07:41:49;;;;;;;7.97;1.65;;;;;;;8.75;64.81;96375.25;4891101;28;20145;-80
2024/01/01 07:44:15;;;;;;;10.55;1.20;;;;;;;8.49;65.63;96402.13;4891309;28;20290;-82
2024/01/01 07:46:43;;;;;;;8.95;1.40;;;;;;;8.88;65.00;96412.22;4874534;28;20354;-80
2024/01/01 07:49:09;;;;;;;6.72;1.98;;;;;;;8.81;65.12;96405.41;4891867;28;20191;-82
2024/01/01 07:51:34;;;;;;;10.07;1.48;;;;;;;8.69;65.14;96414.41;4906963;28;20227;-79
2024/01/01 07:54:00;;;;;;;9.18;1.75;;;;;;;8.86;65.73;96425.44;4891236;28;20543;-80
2024/01/01 07:56:26;;;;;;;5.88;1.65;;;;;;;8.54;65.21;96421.06;4908783;28;20174;-79
2024/01/01 07:58:53;;;;;;;6.88;1.70;;;;;;;8.99;63.65;96419.00;4897403;28;20187;-80
2024/01/01 08:01:18;;;;;;;5.90;1.58;;;;;;;8.90;64.45;96423.13;4924960;28;20569;-80
2024/01/01 08:03:44;;;;;;;3.38;1.15;;;;;;;9.11;63.59;96429.97;4890363;28;20103;-79
2024/01/01 08:06:09;;;;;;;5.68;1.30;;;;;;;9.14;64.19;96431.28;4889116;28;20668;-79
2024/01/01 08:08:35;;;;;;;7.63;1.83;;;;;;;8.90;65.14;96434.28;4890690;28;20308;-80
2024/01/01 08:11:00;;;;;;;3.97;1.02;;;;;;;8.86;65.14;96437.63;4906588;28;20274;-82
2024/01/01 08:13:26;;;;;;;11.57;2.17;;;;;;;8.96;64.55;96433.28;4905931;28;20210;-80
2024/01/01 08:15:51;;;;;;;8.50;1.73;;;;;;;8.61;66.00;96431.25;4874481;28;20791;-80
2024/01/01 08:18:19;;;;;;;8.48;1.20;;;;;;;8.91;65.04;96425.47;4889668;28;20296;-80
2024/01/01 08:20:45;;;;;;;8.68;1.60;;;;;;;9.18;65.38;96440.13;4905479;28;20289;-80
2024/01/01 08:23:10;;;;;;;7.22;1.88;;;;;;;8.87;66.02;96434.00;4890095;28;20296;-80
2024/01/01 08:25:36;;;;;;;9.23;1.20;;;;;;;9.05;64.95;96441.38;4889852;28;20283;-79
2024/01/01 08:28:02;;;;;;;3.53;0.93;;;;;;;8.79;65.30;96449.03;4890762;28;20695;-79
2024/01/01 08:30:27;;;;;;;8.90;1.60;;;;;;;8.65;66.15;96411.53;4925078;28;20277;-80
2024/01/01 08:32:53;;;;;;;5.95;1.30;;;;;;;8.71;66.84;96446.09;4910046;28;20335;-79
2024/01/01 08:35:18;;;;;;;5.80;1.00;;;;;;;8.79;65.78;96443.81;4906294;28;20359;-80
2024/01/01 08:37:44;;;;;;;2.88;1.50;;;;;;;8.83;66.59;96461.50;4889915;28;20124;-79
2024/01/01 08:40:10;;;;;;;8.48;1.27;;;;;;;8.88;66.05;96453.75;4890802;28;20633;-80
2024/01/01 08:42:36;;;;;;;8.13;1.27;;;;;;;8.62;67.21;96453.59;4906143;28;20333;-79
2024/01/01 08:45:03;;;;;;;8.98;1.05;;;;;;;9.02;65.94;96461.88;4903567;28;21426;-80
2024/01/01 08:47:28;;;;;;;5.60;1.63;;;;;;;8.71;67.13;96452.06;4911328;28;20520;-80
2024/01/01 08:49:53;;;;;;;9.55;1.30;;;;;;;9.01;66.02;96466.25;4910972;28;20203;-81
2024/01/01 08:52:19;;;;;;;10.32;1.60;;;;;;;9.05;65.52;96469.13;4903616;28;20308;-80
2024/01/01 08:54:44;;;;;;;6.13;1.75;;;;;;;8.95;66.78;96467.28;4889432;28;20200;-80
2024/01/01 08:57:09;;;;;;;8.50;1.42;;;;;;;8.96;65.85;96474.03;4893365;28;20629;-80
2024/01/01 08:59:35;;;;;;;4.32;1.65;;;;;;;9.04;66.32;96468.38;4905828;28;20178;-80
2024/01/01 09:02:00;;;;;;;4.35;1.08;;;;;;;9.09;65.39;96483.97;4869764;28;20354;-80
2024/01/01 09:04:25;;;;;;;5.07;1.38;;;;;;;9.14;64.78;96486.59;4921974;28;20218;-79
2024/01/01 09:06:51;;;;;;;6.22;1.20;;;;;;;9.13;65.43;96485.06;4908103;28;20415;-80
2024/01/01 09:09:16;;;;;;;9.68;1.20;;;;;;;8.89;66.97;96483.84;4906257;28;20182;-79
2024/01/01 09:11:43;;;;;;;5.90;1.23;;;;;;;8.93;66.44;96496.09;4873221;28;20092;-79
2024/01/01 09:14:09;;;;;;;7.97;1.13;;;;;;;8.77;67.57;96486.63;4888801;28;20314;-80
2024/01/01 09:16:36;;;;;;;5.07;1.17;;;;;;;8.74;67.72;96493.09;4874431;28;20366;-79
2024/01/01 09:19:01;;;;;;;5.53;1.10;;;;;;;8.85;67.71;96498.38;4913135;28;20182;-80
2024/01/01 09:21:27;;;;;;;10.15;1.35;;;;;;;8.96;67.41;96510.38;4889407;28;20201;-80
2024/01/01 09:24:00;;;;;;;5.75;1.98;;;;;;;9.09;66.82;96509.94;4891768;28;20159;-80
2024/01/01 09:26:26;;;;;;;5.03;0.80;;;;;;;9.00;66.25;96514.06;4903945;28;20199;-80
2024/01/01 09:28:51;;;;;;;7.82;0.88;;;;;;;9.13;66.04;96520.59;4889865;28;20195;-80
2024/01/01 09:31:17;;;;;;;4.72;0.90;;;;;;;9.07;66.20;96516.44;4888533;28;20217;-80
2024/01/01 09:33:42;;;;;;;12.52;1.48;;;;;;;8.52;68.33;96515.78;4888228;28;20780;-80
2024/01/01 09:36:07;;;;;;;6.93;1.40;;;;;;;8.72;68.42;96518.53;4905103;28;20472;-80
2024/01/01 09:38:33;;;;;;;4.70;1.45;;;;;;;8.88;67.37;96518.66;4874377;28;20664;-80
2024/01/01 09:40:58;;;;;;;4.63;1.50;;;;;;;8.95;66.94;96525.16;4907877;28;20187;-80
2024/01/01 09:43:23;;;;;;;7.70;2.15;;;;;;;8.88;67.93;96521.25;4905701;28;20538;-79
2024/01/01 09:45:49;;;;;;;7.28;1.40;;;;;;;8.98;67.08;96524.69;4874139;28;20330;-80
2024/01/01 09:48:15;;;;;;;7.00;1.30;;;;;;;9.16;67.11;96528.69;4904125;28;20623;-79
2024/01/01 09:50:43;;;;;;;3.17;1.40;;;;;;;9.05;67.60;96534.06;4885507;28;20181;-81
2024/01/01 09:53:08;;;;;;;5.35;1.60;;;;;;;9.21;66.88;96537.56;4873859;28;20199;-80
2024/01/01 09:55:34;;;;;;;3.97;1.20;;;;;;;9.18;67.35;96536.22;4903955;28;20240;-80
2024/01/01 09:57:59;;;;;;;7.90;2.45;;;;;;;9.22;66.82;96536.50;4904192;28;20205;-81
2024/01/01 10:00:25;;;;;;;8.93;2.58;;;;;;;9.33;66.65;96535.53;4889847;28;20206;-80
2024/01/01 10:02:51;;;;;;;7.82;2.42;;;;;;;9.37;66.35;96526.19;4891250;28;20186;-80
2024/01/01 10:05:16;;;;;;;11.02;4.22;;;;;;;9.30;66.52;96523.03;4922888;28;20211;-79
2024/01/01 10:07:44;;;;;;;8.88;2.70;;;;;;;9.21;67.00;96521.97;4908106;28;20210;-78
2024/01/01 10:10:10;;;;;;;8.45;2.33;;;;;;;9.35;66.25;96539.44;4923554;28;20635;-80
2024/01/01 10:12:36;;;;;;;9.27;2.63;;;;;;;9.12;66.54;96525.03;4893631;28;20412;-81
2024/01/01 10:15:02;;;;;;;8.45;1.52;;;;;;;9.28;66.43;96519.91;4892986;28;20663;-79
2024/01/01 10:17:28;;;;;;;7.65;2.00;;;;;;;9.01;67.33;96515.59;4892748;28;20242;-80
2024/01/01 10:19:56;;;;;;;7.68;1.88;;;;;;;9.04;68.07;96520.28;4910062;28;20494;-79
2024/01/01 10:22:23;;;;;;;14.15;3.95;;;;;;;9.08;67.49;96516.19;4894161;28;20251;-79
2024/01/01 10:24:55;;;;;;;12.10;2.35;;;;;;;8.90;67.57;96506.97;4893194;28;20332;-80
2024/01/01 10:27:22;;;;;;;9.48;2.85;;;;;;;8.87;66.98;96514.47;4922645;28;20296;-81
2024/01/01 10:29:48;;;;;;;5.03;1.50;;;;;;;9.21;66.63;96532.34;4905168;28;20715;-80
2024/01/01 10:32:17;;;;;;;7.22;1.52;;;;;;;9.35;66.42;96528.25;4908835;28;20331;-79
2024/01/01 10:34:44;;;;;;;8.75;1.90;;;;;;;9.24;66.36;96537.06;4915733;28;20707;-81
2024/01/01 10:37:10;;;;;;;5.03;1.50;;;;;;;9.22;67.14;96542.50;4907461;28;20197;-80
2024/01/01 10:39:36;;;;;;;9.35;1.60;;;;;;;9.37;66.31;96552.16;4873394;28;20341;-79
2024/01/01 10:42:02;;;;;;;6.82;1.73;;;;;;;9.43;66.37;96547.81;4895094;28;20641;-80
2024/01/01 10:44:28;;;;;;;11.55;1.63;;;;;;;9.33;66.90;96525.91;4888458;28;20161;-80
2024/01/01 10:46:56;;;;;;;5.72;1.30;;;;;;;9.19;67.62;96525.59;4904917;28;20199;-79
2024/01/01 10:49:25;;;;;;;8.27;1.83;;;;;;;9.54;66.76;96520.81;4892903;28;20205;-80
2024/01/01 10:52:02;;;;;;;6.45;1.17;;;;;;;9.57;66.19;96520.31;4910956;28;20581;-80
2024/01/01 10:54:42;;;;;;;7.20;1.50;;;;;;;9.44;66.53;96508.59;4910825;28;20701;-80
2024/01/01 10:57:33;;;;;;;5.60;1.40;;;;;;;9.42;66.63;96515.06;4904235;28;20197;-80
2024/01/01 11:00:07;;;;;;;7.43;3.03;;;;;;;9.18;67.94;96534.44;4936190;28;20767;-79
2024/01/01 11:02:33;;;;;;;8.02;1.95;;;;;;;9.33;66.74;96519.94;4909842;28;20298;-80
2024/01/01 11:05:08;;;;;;;7.22;1.52;;;;;;;9.43;66.27;96520.00;4910326;28;20213;-80
2024/01/01 11:07:52;;;;;;;5.65;1.35;;;;;;;9.65;66.05;96522.44;4922959;28;20243;-80
2024/01/01 11:10:34;;;;;;;11.27;1.90;;;;;;;9.62;66.22;96519.56;4908376;28;20370;-80
2024/01/01 11:13:00;;;;;;;11.20;2.03;;;;;;;9.43;66.50;96511.44;4906980;28;20448;-80
2024/01/01 11:15:42;;;;;;;8.15;1.73;;;;;;;9.43;67.14;96527.78;4888686;28;20151;-80
2024/01/01 11:18:18;;;;;;;8.57;1.88;;;;;;;9.53;66.27;96508.88;4896098;28;20715;-81
2024/01/01 11:20:51;;;;;;;7.88;1.63;;;;;;;9.38;67.05;96525.16;4924005;28;20205;-81
2024/01/01 11:23:41;;;;;;;8.85;2.83;;;;;;;9.28;67.00;96533.69;4934684;28;20231;-80
2024/01/01 11:26:22;;;;;;;12.77;1.70;;;;;;;9.47;67.11;96536.63;4932281;28;20159;-81
2024/01/01 11:29:27;;;;;;;10.32;1.90;;;;;;;9.61;67.01;96521.38;4910652;28;20232;-82
2024/01/01 11:32:02;;;;;;;6.32;1.52;;;;;;;9.67;66.65;96524.78;4887312;28;20307;-80
2024/01/01 11:34:28;;;;;;;7.93;1.80;;;;;;;9.49;66.44;96531.19;4909746;28;20229;-81
2024/01/01 11:36:53;;;;;;;8.40;1.58;;;;;;;9.65;65.25;96526.88;4891755;28;20280;-81